BWA616 TTPP-SYCJ
Flight info
| Callsign | BWA616 |
|---|---|
| Flight time | 0h 54m |
| Altitude | 35000 |
| Route | POS DCT VOKAV DCT GATUX DCT AKSIN DCT OGRUM |
| Aircraft | B38M/M-MSDE3FGHIRWYLB1/HB1 |
Departure
| Time | 2026-04-25 11:55 |
|---|---|
| Airport | Piarco International Airport (TTPP) |
Arrival
| Time | 2026-04-25 12:49 |
|---|---|
| Airport | Cheddi Jagan International Airport (SYCJ) |
| Time | Latitude | Longitude | Altitude | Speed | Heading |
|---|---|---|---|---|---|
| 2026-04-25 11:03 | 10.59938 | -61.33855 | 201 ft | 0 kts | 1° |
| 2026-04-25 11:45 | 10.59919 | -61.33856 | 210 ft | 4 kts | 5° |
| 2026-04-25 11:46 | 10.59898 | -61.33857 | 201 ft | 4 kts | 3° |
| 2026-04-25 11:46 | 10.59871 | -61.33859 | 205 ft | 4 kts | 1° |
| 2026-04-25 11:46 | 10.59848 | -61.33862 | 212 ft | 4 kts | 33° |
| 2026-04-25 11:46 | 10.59837 | -61.33881 | 201 ft | 4 kts | 88° |
| 2026-04-25 11:47 | 10.59837 | -61.33902 | 201 ft | 0 kts | 91° |
| 2026-04-25 11:50 | 10.59837 | -61.33874 | 201 ft | 11 kts | 91° |
| 2026-04-25 11:50 | 10.59829 | -61.33757 | 207 ft | 19 kts | 119° |
| 2026-04-25 11:50 | 10.59716 | -61.33760 | 203 ft | 17 kts | 247° |
| 2026-04-25 11:50 | 10.59710 | -61.33885 | 200 ft | 18 kts | 269° |
| 2026-04-25 11:51 | 10.59709 | -61.34017 | 204 ft | 19 kts | 269° |
| 2026-04-25 11:51 | 10.59709 | -61.34159 | 206 ft | 21 kts | 270° |
| 2026-04-25 11:51 | 10.59708 | -61.34311 | 199 ft | 22 kts | 270° |
| 2026-04-25 11:51 | 10.59700 | -61.34480 | 199 ft | 27 kts | 251° |
| 2026-04-25 11:52 | 10.59536 | -61.34530 | 194 ft | 27 kts | 181° |
| 2026-04-25 11:52 | 10.59416 | -61.34561 | 205 ft | 14 kts | 253° |
| 2026-04-25 11:52 | 10.59408 | -61.34655 | 199 ft | 13 kts | 262° |
| 2026-04-25 11:52 | 10.59385 | -61.34751 | 200 ft | 16 kts | 255° |
| 2026-04-25 11:53 | 10.59364 | -61.34884 | 200 ft | 14 kts | 281° |
| 2026-04-25 11:53 | 10.59352 | -61.34979 | 200 ft | 14 kts | 270° |
| 2026-04-25 11:53 | 10.59351 | -61.35084 | 200 ft | 18 kts | 270° |
| 2026-04-25 11:53 | 10.59380 | -61.35190 | 210 ft | 13 kts | 337° |
| 2026-04-25 11:54 | 10.59475 | -61.35187 | 209 ft | 15 kts | 24° |
| 2026-04-25 11:54 | 10.59534 | -61.35111 | 194 ft | 11 kts | 89° |
| 2026-04-25 11:54 | 10.59536 | -61.34407 | 203 ft | 115 kts | 89° |
| 2026-04-25 11:55 | 10.59539 | -61.33382 | 202 ft | 172 kts | 90° |
| 2026-04-25 11:55 | 10.59532 | -61.32134 | 835 ft | 177 kts | 90° |
| 2026-04-25 11:55 | 10.59532 | -61.30840 | 1558 ft | 183 kts | 89° |
| 2026-04-25 11:55 | 10.59593 | -61.29526 | 2085 ft | 196 kts | 76° |
| 2026-04-25 11:56 | 10.60068 | -61.28154 | 2363 ft | 215 kts | 65° |
| 2026-04-25 11:56 | 10.60764 | -61.26717 | 2628 ft | 238 kts | 62° |
| 2026-04-25 11:56 | 10.61522 | -61.25283 | 3481 ft | 234 kts | 62° |
| 2026-04-25 11:56 | 10.62288 | -61.23752 | 3900 ft | 250 kts | 70° |
| 2026-04-25 11:57 | 10.62753 | -61.22013 | 4439 ft | 259 kts | 85° |
| 2026-04-25 11:57 | 10.62599 | -61.20199 | 5161 ft | 260 kts | 104° |
| 2026-04-25 11:57 | 10.61953 | -61.18467 | 5981 ft | 261 kts | 119° |
| 2026-04-25 11:57 | 10.60867 | -61.16970 | 6931 ft | 268 kts | 129° |
| 2026-04-25 11:58 | 10.59626 | -61.15518 | 7782 ft | 274 kts | 129° |
| 2026-04-25 11:58 | 10.58569 | -61.13891 | 8645 ft | 279 kts | 116° |
| 2026-04-25 11:58 | 10.57952 | -61.12012 | 9464 ft | 283 kts | 94° |
| 2026-04-25 11:58 | 10.58103 | -61.10045 | 10252 ft | 289 kts | 86° |
| 2026-04-25 11:59 | 10.57765 | -61.08003 | 10779 ft | 300 kts | 116° |
| 2026-04-25 11:59 | 10.56648 | -61.06175 | 11383 ft | 311 kts | 127° |
| 2026-04-25 11:59 | 10.55539 | -61.04234 | 11818 ft | 325 kts | 106° |
| 2026-04-25 12:00 | 10.55355 | -60.99537 | 13033 ft | 343 kts | 89° |
| 2026-04-25 12:00 | 10.55424 | -60.97097 | 13704 ft | 347 kts | 89° |
| 2026-04-25 12:00 | 10.54610 | -60.92342 | 14995 ft | 351 kts | 123° |
| 2026-04-25 12:01 | 10.52948 | -60.90516 | 15472 ft | 357 kts | 142° |
| 2026-04-25 12:01 | 10.50886 | -60.89110 | 15981 ft | 358 kts | 155° |
| 2026-04-25 12:01 | 10.48472 | -60.88523 | 16574 ft | 361 kts | 180° |
| 2026-04-25 12:01 | 10.45994 | -60.88989 | 17118 ft | 366 kts | 199° |
| 2026-04-25 12:02 | 10.41209 | -60.90927 | 18163 ft | 373 kts | 196° |
| 2026-04-25 12:02 | 10.38646 | -60.91410 | 18577 ft | 373 kts | 181° |
| 2026-04-25 12:02 | 10.36066 | -60.91140 | 19073 ft | 376 kts | 166° |
| 2026-04-25 12:03 | 10.33523 | -60.90459 | 19521 ft | 380 kts | 164° |
| 2026-04-25 12:03 | 10.30941 | -60.89855 | 20001 ft | 382 kts | 169° |
| 2026-04-25 12:03 | 10.28312 | -60.89366 | 20460 ft | 385 kts | 169° |
| 2026-04-25 12:03 | 10.25706 | -60.88874 | 20887 ft | 388 kts | 167° |
| 2026-04-25 12:04 | 10.23081 | -60.88186 | 21307 ft | 391 kts | 164° |
| 2026-04-25 12:04 | 10.20452 | -60.87449 | 21746 ft | 393 kts | 164° |
| 2026-04-25 12:04 | 10.17795 | -60.86673 | 21993 ft | 402 kts | 159° |
| 2026-04-25 12:04 | 10.15246 | -60.85434 | 22105 ft | 412 kts | 148° |
| 2026-04-25 12:05 | 10.12942 | -60.83659 | 22296 ft | 419 kts | 142° |
| 2026-04-25 12:05 | 10.10626 | -60.81852 | 22641 ft | 421 kts | 143° |
| 2026-04-25 12:05 | 10.08274 | -60.80044 | 22970 ft | 424 kts | 143° |
| 2026-04-25 12:05 | 10.05933 | -60.78256 | 23319 ft | 426 kts | 143° |
| 2026-04-25 12:06 | 10.03550 | -60.76441 | 23654 ft | 429 kts | 143° |
| 2026-04-25 12:06 | 10.01163 | -60.74624 | 23986 ft | 431 kts | 143° |
| 2026-04-25 12:06 | 9.98758 | -60.72794 | 24339 ft | 434 kts | 143° |
| 2026-04-25 12:06 | 9.96333 | -60.70951 | 24706 ft | 436 kts | 143° |
| 2026-04-25 12:07 | 9.93897 | -60.69098 | 25057 ft | 438 kts | 143° |
| 2026-04-25 12:07 | 9.91453 | -60.67240 | 25385 ft | 440 kts | 143° |
| 2026-04-25 12:07 | 9.88991 | -60.65368 | 25709 ft | 443 kts | 143° |
| 2026-04-25 12:07 | 9.86520 | -60.63491 | 26019 ft | 445 kts | 143° |
| 2026-04-25 12:08 | 9.84066 | -60.61626 | 26326 ft | 447 kts | 143° |
| 2026-04-25 12:08 | 9.81572 | -60.59731 | 26626 ft | 449 kts | 143° |
| 2026-04-25 12:08 | 9.79065 | -60.57827 | 26923 ft | 452 kts | 143° |
| 2026-04-25 12:08 | 9.76543 | -60.55912 | 27214 ft | 454 kts | 143° |
| 2026-04-25 12:09 | 9.74008 | -60.53988 | 27506 ft | 456 kts | 143° |
| 2026-04-25 12:09 | 9.71457 | -60.52052 | 27806 ft | 458 kts | 143° |
| 2026-04-25 12:09 | 9.68897 | -60.50109 | 28100 ft | 460 kts | 143° |
| 2026-04-25 12:09 | 9.66326 | -60.48158 | 28400 ft | 462 kts | 143° |
| 2026-04-25 12:10 | 9.63745 | -60.46200 | 28667 ft | 464 kts | 143° |
| 2026-04-25 12:10 | 9.61154 | -60.44234 | 28933 ft | 466 kts | 143° |
| 2026-04-25 12:10 | 9.58574 | -60.42278 | 29189 ft | 468 kts | 143° |
| 2026-04-25 12:10 | 9.55955 | -60.40292 | 29451 ft | 470 kts | 143° |
| 2026-04-25 12:11 | 9.53329 | -60.38302 | 29710 ft | 472 kts | 144° |
| 2026-04-25 12:11 | 9.50698 | -60.36308 | 29975 ft | 474 kts | 144° |
| 2026-04-25 12:11 | 9.48056 | -60.34305 | 30210 ft | 476 kts | 144° |
| 2026-04-25 12:11 | 9.45393 | -60.32288 | 30505 ft | 476 kts | 144° |
| 2026-04-25 12:12 | 9.42743 | -60.30281 | 30899 ft | 474 kts | 144° |
| 2026-04-25 12:12 | 9.40996 | -60.28957 | 31163 ft | 473 kts | 144° |
| 2026-04-25 12:12 | 9.37504 | -60.26313 | 31682 ft | 470 kts | 144° |
| 2026-04-25 12:12 | 9.35738 | -60.24976 | 31960 ft | 469 kts | 144° |
| 2026-04-25 12:13 | 9.32284 | -60.22361 | 32486 ft | 466 kts | 144° |
| 2026-04-25 12:13 | 9.30531 | -60.21034 | 32740 ft | 465 kts | 144° |
| 2026-04-25 12:13 | 9.27971 | -60.19098 | 33122 ft | 464 kts | 144° |
| 2026-04-25 12:13 | 9.25397 | -60.17150 | 33534 ft | 461 kts | 144° |
| 2026-04-25 12:14 | 9.22827 | -60.15206 | 33905 ft | 460 kts | 144° |
| 2026-04-25 12:14 | 9.20265 | -60.13268 | 34248 ft | 458 kts | 144° |
| 2026-04-25 12:14 | 9.17713 | -60.11338 | 34586 ft | 457 kts | 144° |
| 2026-04-25 12:14 | 9.15162 | -60.09411 | 34858 ft | 457 kts | 144° |
| 2026-04-25 12:15 | 9.12607 | -60.07479 | 34968 ft | 459 kts | 144° |
| 2026-04-25 12:15 | 9.10051 | -60.05548 | 34950 ft | 457 kts | 144° |
| 2026-04-25 12:15 | 9.04997 | -60.01730 | 34953 ft | 456 kts | 144° |
| 2026-04-25 12:16 | 8.99906 | -59.97885 | 34954 ft | 456 kts | 144° |
| 2026-04-25 12:16 | 8.94817 | -59.94044 | 34952 ft | 456 kts | 144° |
| 2026-04-25 12:17 | 8.89599 | -59.90470 | 34977 ft | 455 kts | 150° |
| 2026-04-25 12:17 | 8.84119 | -59.87229 | 34971 ft | 456 kts | 150° |
| 2026-04-25 12:18 | 8.78621 | -59.83995 | 34972 ft | 456 kts | 150° |
| 2026-04-25 12:18 | 8.73167 | -59.80789 | 34972 ft | 456 kts | 150° |
| 2026-04-25 12:19 | 8.64919 | -59.75943 | 34972 ft | 457 kts | 150° |
| 2026-04-25 12:20 | 8.59427 | -59.72718 | 34971 ft | 456 kts | 150° |
| 2026-04-25 12:20 | 8.53928 | -59.69490 | 34970 ft | 456 kts | 150° |
| 2026-04-25 12:21 | 8.48430 | -59.66263 | 34971 ft | 457 kts | 150° |
| 2026-04-25 12:21 | 8.42970 | -59.63061 | 34971 ft | 456 kts | 150° |
| 2026-04-25 12:22 | 8.37470 | -59.59835 | 34972 ft | 456 kts | 150° |
| 2026-04-25 12:22 | 8.31969 | -59.56615 | 34969 ft | 456 kts | 151° |
| 2026-04-25 12:22 | 8.29029 | -59.55444 | 34956 ft | 453 kts | 169° |
| 2026-04-25 12:23 | 8.25901 | -59.55014 | 34982 ft | 456 kts | 173° |
| 2026-04-25 12:23 | 8.19644 | -59.54193 | 34974 ft | 456 kts | 169° |
| 2026-04-25 12:24 | 8.13404 | -59.52980 | 34971 ft | 456 kts | 168° |
| 2026-04-25 12:24 | 8.07162 | -59.51721 | 34967 ft | 456 kts | 163° |
| 2026-04-25 12:25 | 8.01446 | -59.49001 | 34960 ft | 455 kts | 145° |
| 2026-04-25 12:25 | 7.96203 | -59.45467 | 34970 ft | 456 kts | 147° |
| 2026-04-25 12:26 | 7.90859 | -59.41991 | 34972 ft | 456 kts | 147° |
| 2026-04-25 12:26 | 7.85506 | -59.38517 | 34679 ft | 455 kts | 147° |
| 2026-04-25 12:26 | 7.82845 | -59.36791 | 34440 ft | 454 kts | 147° |
| 2026-04-25 12:27 | 7.80214 | -59.35084 | 34151 ft | 452 kts | 147° |
| 2026-04-25 12:27 | 7.77562 | -59.33365 | 33240 ft | 456 kts | 147° |
| 2026-04-25 12:27 | 7.74864 | -59.31617 | 32199 ft | 463 kts | 147° |
| 2026-04-25 12:27 | 7.72147 | -59.29857 | 31309 ft | 466 kts | 147° |
| 2026-04-25 12:28 | 7.69416 | -59.28087 | 30524 ft | 466 kts | 147° |
| 2026-04-25 12:28 | 7.66687 | -59.26318 | 29679 ft | 467 kts | 148° |
| 2026-04-25 12:28 | 7.63945 | -59.24541 | 28753 ft | 470 kts | 147° |
| 2026-04-25 12:28 | 7.61225 | -59.22780 | 27835 ft | 472 kts | 147° |
| 2026-04-25 12:29 | 7.58451 | -59.20983 | 27043 ft | 471 kts | 147° |
| 2026-04-25 12:29 | 7.55697 | -59.19199 | 26351 ft | 468 kts | 147° |
| 2026-04-25 12:29 | 7.52964 | -59.17429 | 25647 ft | 466 kts | 147° |
| 2026-04-25 12:29 | 7.50240 | -59.15665 | 24949 ft | 464 kts | 146° |
| 2026-04-25 12:30 | 7.47529 | -59.13910 | 24255 ft | 461 kts | 146° |
| 2026-04-25 12:30 | 7.44871 | -59.12189 | 23577 ft | 459 kts | 146° |
| 2026-04-25 12:30 | 7.42189 | -59.10453 | 22889 ft | 456 kts | 146° |
| 2026-04-25 12:30 | 7.39525 | -59.08729 | 22211 ft | 454 kts | 146° |
| 2026-04-25 12:31 | 7.36876 | -59.07015 | 21541 ft | 451 kts | 146° |
| 2026-04-25 12:31 | 7.34243 | -59.05312 | 20867 ft | 448 kts | 146° |
| 2026-04-25 12:31 | 7.31630 | -59.03621 | 20202 ft | 444 kts | 146° |
| 2026-04-25 12:31 | 7.29034 | -59.01942 | 19544 ft | 441 kts | 146° |
| 2026-04-25 12:32 | 7.26468 | -59.00282 | 18892 ft | 437 kts | 146° |
| 2026-04-25 12:32 | 7.23918 | -58.98633 | 18247 ft | 433 kts | 146° |
| 2026-04-25 12:32 | 7.21392 | -58.97000 | 17656 ft | 428 kts | 146° |
| 2026-04-25 12:32 | 7.18890 | -58.95383 | 17017 ft | 425 kts | 146° |
| 2026-04-25 12:33 | 7.16411 | -58.93780 | 16387 ft | 422 kts | 146° |
| 2026-04-25 12:33 | 7.13953 | -58.92191 | 15843 ft | 416 kts | 146° |
| 2026-04-25 12:33 | 7.11521 | -58.90619 | 15190 ft | 414 kts | 146° |
| 2026-04-25 12:33 | 7.09115 | -58.89065 | 14675 ft | 409 kts | 146° |
| 2026-04-25 12:34 | 7.06755 | -58.87539 | 14065 ft | 406 kts | 146° |
| 2026-04-25 12:34 | 7.04390 | -58.86012 | 13510 ft | 402 kts | 146° |
| 2026-04-25 12:34 | 7.02039 | -58.84493 | 12976 ft | 398 kts | 146° |
| 2026-04-25 12:34 | 7.00464 | -58.83476 | 12558 ft | 397 kts | 146° |
| 2026-04-25 12:35 | 6.97398 | -58.81496 | 11954 ft | 390 kts | 146° |
| 2026-04-25 12:35 | 6.95140 | -58.80037 | 11652 ft | 381 kts | 146° |
| 2026-04-25 12:35 | 6.92938 | -58.78615 | 11426 ft | 370 kts | 146° |
| 2026-04-25 12:35 | 6.90800 | -58.77234 | 11232 ft | 359 kts | 146° |
| 2026-04-25 12:36 | 6.88728 | -58.75896 | 11049 ft | 349 kts | 145° |
| 2026-04-25 12:36 | 6.86711 | -58.74594 | 10878 ft | 339 kts | 145° |
| 2026-04-25 12:36 | 6.84753 | -58.73330 | 10713 ft | 330 kts | 145° |
| 2026-04-25 12:36 | 6.82872 | -58.72116 | 10554 ft | 320 kts | 145° |
| 2026-04-25 12:37 | 6.81022 | -58.70922 | 10402 ft | 311 kts | 145° |
| 2026-04-25 12:37 | 6.79224 | -58.69761 | 10258 ft | 302 kts | 145° |
| 2026-04-25 12:37 | 6.77479 | -58.68636 | 10116 ft | 294 kts | 145° |
| 2026-04-25 12:37 | 6.75779 | -58.67539 | 9918 ft | 287 kts | 145° |
| 2026-04-25 12:38 | 6.74113 | -58.66465 | 9589 ft | 279 kts | 144° |
| 2026-04-25 12:38 | 6.72686 | -58.65226 | 9289 ft | 265 kts | 127° |
| 2026-04-25 12:38 | 6.71633 | -58.63752 | 9033 ft | 253 kts | 122° |
| 2026-04-25 12:38 | 6.70667 | -58.62280 | 8787 ft | 255 kts | 121° |
| 2026-04-25 12:39 | 6.69699 | -58.60744 | 8523 ft | 263 kts | 120° |
| 2026-04-25 12:39 | 6.68764 | -58.59168 | 8268 ft | 266 kts | 119° |
| 2026-04-25 12:39 | 6.67819 | -58.57560 | 8020 ft | 266 kts | 119° |
| 2026-04-25 12:39 | 6.66878 | -58.55963 | 7775 ft | 265 kts | 120° |
| 2026-04-25 12:40 | 6.65611 | -58.54633 | 7566 ft | 267 kts | 147° |
| 2026-04-25 12:40 | 6.63889 | -58.53919 | 7405 ft | 269 kts | 159° |
| 2026-04-25 12:40 | 6.62116 | -58.53312 | 7175 ft | 269 kts | 158° |
| 2026-04-25 12:40 | 6.60348 | -58.52691 | 6888 ft | 269 kts | 158° |
| 2026-04-25 12:41 | 6.58574 | -58.52057 | 6592 ft | 269 kts | 158° |
| 2026-04-25 12:41 | 6.56837 | -58.51434 | 6285 ft | 268 kts | 157° |
| 2026-04-25 12:41 | 6.55087 | -58.50802 | 5977 ft | 267 kts | 157° |
| 2026-04-25 12:41 | 6.53345 | -58.50172 | 5671 ft | 265 kts | 157° |
| 2026-04-25 12:42 | 6.51614 | -58.49544 | 5384 ft | 263 kts | 157° |
| 2026-04-25 12:42 | 6.50472 | -58.49131 | 5191 ft | 262 kts | 157° |
| 2026-04-25 12:42 | 6.48184 | -58.48302 | 4794 ft | 260 kts | 157° |
| 2026-04-25 12:42 | 6.46487 | -58.47687 | 4507 ft | 258 kts | 157° |
| 2026-04-25 12:43 | 6.44791 | -58.47074 | 4216 ft | 259 kts | 157° |
| 2026-04-25 12:43 | 6.43177 | -58.46385 | 4006 ft | 251 kts | 143° |
| 2026-04-25 12:43 | 6.40719 | -58.44081 | 3725 ft | 233 kts | 134° |
| 2026-04-25 12:44 | 6.39577 | -58.42959 | 3579 ft | 225 kts | 134° |
| 2026-04-25 12:44 | 6.38482 | -58.41872 | 3466 ft | 217 kts | 133° |
| 2026-04-25 12:44 | 6.37186 | -58.39392 | 3221 ft | 197 kts | 87° |
| 2026-04-25 12:45 | 6.37559 | -58.38153 | 3167 ft | 180 kts | 61° |
| 2026-04-25 12:45 | 6.38334 | -58.37176 | 2916 ft | 178 kts | 51° |
| 2026-04-25 12:45 | 6.40010 | -58.35363 | 2391 ft | 177 kts | 49° |
| 2026-04-25 12:46 | 6.40853 | -58.34485 | 2241 ft | 171 kts | 48° |
| 2026-04-25 12:46 | 6.41679 | -58.33632 | 2073 ft | 169 kts | 49° |
| 2026-04-25 12:46 | 6.42486 | -58.32781 | 1811 ft | 167 kts | 47° |
| 2026-04-25 12:46 | 6.43309 | -58.31954 | 1571 ft | 167 kts | 46° |
| 2026-04-25 12:47 | 6.44134 | -58.31132 | 1325 ft | 167 kts | 46° |
| 2026-04-25 12:47 | 6.44954 | -58.30307 | 1106 ft | 166 kts | 46° |
| 2026-04-25 12:47 | 6.45749 | -58.29473 | 894 ft | 164 kts | 46° |
| 2026-04-25 12:47 | 6.46564 | -58.28664 | 693 ft | 165 kts | 44° |
| 2026-04-25 12:48 | 6.47386 | -58.27866 | 473 ft | 166 kts | 45° |
| 2026-04-25 12:48 | 6.48190 | -58.27069 | 268 ft | 161 kts | 45° |
| 2026-04-25 12:48 | 6.48992 | -58.26272 | 109 ft | 160 kts | 45° |
| 2026-04-25 12:48 | 6.49679 | -58.25587 | 105 ft | 106 kts | 44° |
| 2026-04-25 12:49 | 6.50051 | -58.25218 | 107 ft | 52 kts | 45° |
| 2026-04-25 12:49 | 6.50222 | -58.25051 | 106 ft | 18 kts | 43° |
| 2026-04-25 12:49 | 6.50284 | -58.25057 | 105 ft | 7 kts | 317° |
| 2026-04-25 12:49 | 6.50316 | -58.25088 | 107 ft | 6 kts | 314° |
| 2026-04-25 12:50 | 6.50340 | -58.25114 | 107 ft | 4 kts | 309° |
| 2026-04-25 12:50 | 6.50346 | -58.25134 | 105 ft | 2 kts | 271° |
| 2026-04-25 12:50 | 6.50346 | -58.25141 | 107 ft | 1 kts | 266° |
| 2026-04-25 12:50 | 6.50338 | -58.25159 | 105 ft | 5 kts | 237° |
| 2026-04-25 12:51 | 6.50329 | -58.25190 | 107 ft | 4 kts | 295° |
| 2026-04-25 12:51 | 6.50345 | -58.25206 | 107 ft | 3 kts | 318° |
| 2026-04-25 12:51 | 6.50353 | -58.25214 | 107 ft | 0 kts | 317° |
| 2026-04-25 12:51 | 6.50356 | -58.25216 | 107 ft | 0 kts | 316° |